createdAt,value
2023-04-13T00:00:48.062Z,26.02
2023-04-13T00:03:21.649Z,26.80
2023-04-13T00:05:53.079Z,25.90
2023-04-13T00:08:23.165Z,26.02
2023-04-13T00:10:51.650Z,28.90
2023-04-13T00:13:19.275Z,26.63
2023-04-13T00:15:47.700Z,26.40
2023-04-13T00:18:15.464Z,27.52
2023-04-13T00:20:43.744Z,28.38
2023-04-13T00:23:11.858Z,29.27
2023-04-13T00:25:39.792Z,28.73
2023-04-13T00:28:07.917Z,27.65
2023-04-13T00:30:36.334Z,27.85
2023-04-13T00:33:06.060Z,26.83
2023-04-13T00:35:34.265Z,26.35
2023-04-13T00:38:04.777Z,25.33
2023-04-13T00:40:33.189Z,24.88
2023-04-13T00:43:02.336Z,25.23
2023-04-13T00:45:30.759Z,24.90
2023-04-13T00:48:00.108Z,23.80
2023-04-13T00:50:28.516Z,23.40
2023-04-13T00:52:58.034Z,22.52
2023-04-13T00:55:27.912Z,23.95
2023-04-13T00:57:55.765Z,25.02
2023-04-13T01:00:25.794Z,23.23
2023-04-13T01:02:55.865Z,25.92
2023-04-13T01:05:26.794Z,27.10
2023-04-13T01:07:59.401Z,28.00
2023-04-13T01:10:56.001Z,33.10
2023-04-13T01:13:42.276Z,39.08
2023-04-13T01:16:28.211Z,36.05
2023-04-13T01:18:57.284Z,33.35
2023-04-13T01:21:29.868Z,32.47
2023-04-13T01:24:21.785Z,30.05
2023-04-13T01:27:15.077Z,31.92
2023-04-13T01:29:46.795Z,29.30
2023-04-13T01:32:17.318Z,27.13
2023-04-13T01:34:46.108Z,24.13
2023-04-13T01:37:14.435Z,24.70
2023-04-13T01:39:42.444Z,25.30
2023-04-13T01:42:21.488Z,23.45
2023-04-13T01:44:51.519Z,23.60
2023-04-13T01:47:22.820Z,24.77
2023-04-13T01:50:29.771Z,23.25
2023-04-13T01:53:11.368Z,24.08
2023-04-13T01:55:44.788Z,25.15
2023-04-13T01:58:15.606Z,27.13
2023-04-13T02:00:48.183Z,25.45
2023-04-13T02:03:16.582Z,23.10
2023-04-13T02:05:44.841Z,24.00
2023-04-13T02:08:14.008Z,24.15
2023-04-13T02:10:46.963Z,24.38
2023-04-13T02:13:15.046Z,22.83
2023-04-13T02:15:43.408Z,23.17
2023-04-13T02:18:11.466Z,23.85
2023-04-13T02:20:43.784Z,23.83
2023-04-13T02:23:15.125Z,22.67
2023-04-13T02:25:47.915Z,23.75
2023-04-13T02:28:18.348Z,25.20
2023-04-13T02:30:47.315Z,24.63
2023-04-13T02:33:15.335Z,23.90
2023-04-13T02:35:43.686Z,23.45
2023-04-13T02:38:11.800Z,23.35
2023-04-13T02:40:44.007Z,24.90
2023-04-13T02:43:12.933Z,24.40
2023-04-13T02:45:42.828Z,24.50
2023-04-13T02:48:14.448Z,23.70
2023-04-13T02:50:42.812Z,23.95
2023-04-13T02:53:18.387Z,22.80
2023-04-13T02:55:53.764Z,22.30
2023-04-13T02:58:23.728Z,25.23
2023-04-13T03:00:58.749Z,26.55
2023-04-13T03:03:27.092Z,28.55
2023-04-13T03:05:54.834Z,28.27
2023-04-13T03:08:28.509Z,29.42
2023-04-13T03:11:20.589Z,28.42
2023-04-13T03:13:58.570Z,28.02
2023-04-13T03:16:28.284Z,26.40
2023-04-13T03:18:58.234Z,26.58
2023-04-13T03:21:27.080Z,29.27
2023-04-13T03:24:06.753Z,30.73
2023-04-13T03:26:34.615Z,30.33
2023-04-13T03:29:06.190Z,30.25
2023-04-13T03:31:39.234Z,30.40
2023-04-13T03:34:07.805Z,29.85
2023-04-13T03:36:36.910Z,28.23
2023-04-13T03:39:05.590Z,28.85
2023-04-13T03:41:36.387Z,27.52
2023-04-13T03:44:05.942Z,28.80
2023-04-13T03:46:37.459Z,27.90
2023-04-13T03:49:13.904Z,28.58
2023-04-13T03:51:41.739Z,29.08
2023-04-13T03:54:09.637Z,28.13
2023-04-13T03:56:37.568Z,28.98
2023-04-13T03:59:06.603Z,28.50
2023-04-13T04:01:34.333Z,29.85
2023-04-13T04:04:02.436Z,30.23
2023-04-13T04:06:31.360Z,30.33
2023-04-13T04:09:19.683Z,27.30
2023-04-13T04:11:48.679Z,28.85
2023-04-13T04:14:23.762Z,29.30
2023-04-13T04:16:58.489Z,28.63
2023-04-13T04:19:26.494Z,28.80
2023-04-13T04:21:57.804Z,29.35
2023-04-13T04:24:29.838Z,29.00
2023-04-13T04:27:00.471Z,29.30
2023-04-13T04:29:34.500Z,29.83
2023-04-13T04:32:28.331Z,29.80
2023-04-13T04:34:57.368Z,29.95
2023-04-13T04:37:26.615Z,30.73
2023-04-13T04:40:09.783Z,32.95
2023-04-13T04:42:38.838Z,33.58
2023-04-13T04:45:15.124Z,33.17
2023-04-13T04:47:45.261Z,33.40
2023-04-13T04:50:20.304Z,35.75
2023-04-13T04:52:54.307Z,36.00
2023-04-13T04:55:25.001Z,35.25
2023-04-13T04:57:52.977Z,34.55
2023-04-13T05:00:26.507Z,34.60
2023-04-13T05:03:02.839Z,35.25
2023-04-13T05:05:31.144Z,36.58
2023-04-13T05:08:04.922Z,37.08
2023-04-13T05:10:35.147Z,36.22
2023-04-13T05:13:03.769Z,37.75
2023-04-13T05:15:31.956Z,37.10
2023-04-13T05:17:59.935Z,38.25
2023-04-13T05:20:30.178Z,35.78
2023-04-13T05:23:03.198Z,35.45
2023-04-13T05:25:32.276Z,36.15
2023-04-13T05:28:05.357Z,35.08
2023-04-13T05:30:34.175Z,34.88
2023-04-13T05:33:05.635Z,33.33
2023-04-13T05:35:37.543Z,32.80
2023-04-13T05:38:07.112Z,32.53
2023-04-13T05:40:36.467Z,32.75
2023-04-13T05:43:06.440Z,32.97
2023-04-13T05:45:39.635Z,31.25
2023-04-13T05:48:12.491Z,30.98
2023-04-13T05:50:43.775Z,29.70
2023-04-13T05:53:12.776Z,30.10
2023-04-13T05:55:54.320Z,30.17
2023-04-13T05:58:22.217Z,30.23
2023-04-13T06:00:57.315Z,28.80
2023-04-13T06:03:30.720Z,27.90
2023-04-13T06:05:59.482Z,28.35
2023-04-13T06:08:32.685Z,27.13
2023-04-13T06:11:01.695Z,27.27
2023-04-13T06:13:30.287Z,28.45
2023-04-13T06:15:58.511Z,28.67
2023-04-13T06:18:29.208Z,27.52
2023-04-13T06:20:59.207Z,27.50
2023-04-13T06:23:26.872Z,25.88
2023-04-13T06:25:59.180Z,23.15
2023-04-13T06:28:43.084Z,22.73
2023-04-13T06:31:13.965Z,20.67
2023-04-13T06:33:43.391Z,23.58
2023-04-13T06:36:12.101Z,21.95
2023-04-13T06:38:40.681Z,22.58
2023-04-13T06:41:14.774Z,24.98
2023-04-13T06:43:45.330Z,22.55
2023-04-13T06:46:20.194Z,21.90
2023-04-13T06:48:50.825Z,21.48
2023-04-13T06:51:22.956Z,20.98
2023-04-13T06:53:53.525Z,19.88
2023-04-13T06:56:21.634Z,19.73
2023-04-13T06:58:50.039Z,18.88
2023-04-13T07:01:18.050Z,18.80
2023-04-13T07:03:47.144Z,18.60
2023-04-13T07:06:17.009Z,16.92
2023-04-13T07:08:44.693Z,16.08
2023-04-13T07:11:13.507Z,17.52
2023-04-13T07:13:42.920Z,18.25
2023-04-13T07:16:12.706Z,16.52
2023-04-13T07:18:44.118Z,16.10
2023-04-13T07:21:12.132Z,15.32
2023-04-13T07:23:55.458Z,15.32
2023-04-13T07:26:24.428Z,14.02
2023-04-13T07:28:52.080Z,14.95
2023-04-13T07:31:22.839Z,15.02
2023-04-13T07:33:52.907Z,17.20
2023-04-13T07:36:26.530Z,16.23
2023-04-13T07:38:58.112Z,16.48
2023-04-13T07:41:26.831Z,15.05
2023-04-13T07:43:59.534Z,15.65
2023-04-13T07:46:28.107Z,14.98
2023-04-13T07:48:57.025Z,14.30
2023-04-13T07:51:30.818Z,14.57
2023-04-13T07:53:58.595Z,14.65
2023-04-13T07:56:31.109Z,14.32
2023-04-13T07:59:00.799Z,14.35
2023-04-13T08:01:29.315Z,14.55
2023-04-13T08:04:01.966Z,14.70
2023-04-13T08:06:30.233Z,14.85
2023-04-13T08:08:58.398Z,13.90
2023-04-13T08:11:27.115Z,15.02
2023-04-13T08:14:02.066Z,14.20
2023-04-13T08:16:34.412Z,13.93
2023-04-13T08:19:05.035Z,14.02
2023-04-13T08:21:38.654Z,13.75
2023-04-13T08:24:06.615Z,13.07
2023-04-13T08:26:34.661Z,14.15
2023-04-13T08:29:03.406Z,13.25
2023-04-13T08:31:32.494Z,13.25
2023-04-13T08:34:04.793Z,13.47
2023-04-13T08:36:33.435Z,13.45
2023-04-13T08:39:09.885Z,13.52
2023-04-13T08:41:44.108Z,13.63
2023-04-13T08:44:13.774Z,14.27
2023-04-13T08:46:46.690Z,12.85
2023-04-13T08:49:17.683Z,13.43
2023-04-13T08:52:08.948Z,13.00
2023-04-13T08:54:37.834Z,13.32
2023-04-13T08:57:11.367Z,13.45
2023-04-13T08:59:42.278Z,12.88
2023-04-13T09:02:11.978Z,13.80
2023-04-13T09:04:54.393Z,12.18
2023-04-13T09:07:32.383Z,13.07
2023-04-13T09:10:06.343Z,12.27
2023-04-13T09:12:34.993Z,11.88
2023-04-13T09:15:07.221Z,13.23
2023-04-13T09:17:42.093Z,13.35
2023-04-13T09:20:23.772Z,12.82
2023-04-13T09:22:52.652Z,12.18
2023-04-13T09:25:23.892Z,12.25
2023-04-13T09:27:52.621Z,12.15
2023-04-13T09:30:25.072Z,11.48
2023-04-13T09:33:06.743Z,11.15
2023-04-13T09:35:35.734Z,12.80
2023-04-13T09:38:05.207Z,12.07
2023-04-13T09:40:33.229Z,12.20
2023-04-13T09:43:06.920Z,11.48
2023-04-13T09:45:39.901Z,11.70
2023-04-13T09:48:28.511Z,11.45
2023-04-13T09:51:05.506Z,12.15
2023-04-13T09:53:49.294Z,12.25
2023-04-13T09:56:17.564Z,12.55
2023-04-13T09:58:47.457Z,12.93
2023-04-13T10:01:15.522Z,12.27
2023-04-13T10:03:44.115Z,12.50
2023-04-13T10:06:12.886Z,12.90
2023-04-13T10:08:46.344Z,12.70
2023-04-13T10:11:15.272Z,11.82
2023-04-13T10:14:00.150Z,12.00
2023-04-13T10:17:10.345Z,12.80
2023-04-13T10:19:48.718Z,12.13
2023-04-13T10:22:17.598Z,12.30
2023-04-13T10:24:45.592Z,12.15
2023-04-13T10:27:21.037Z,13.10
2023-04-13T10:29:50.114Z,13.00
2023-04-13T10:32:28.310Z,12.73
2023-04-13T10:34:56.931Z,13.23
2023-04-13T10:37:28.755Z,12.50
2023-04-13T10:40:07.982Z,11.90
2023-04-13T10:45:20.669Z,13.63
2023-04-13T10:47:48.827Z,12.23
2023-04-13T10:50:22.369Z,13.27
2023-04-13T10:53:05.844Z,12.40
2023-04-13T10:55:35.434Z,12.35
2023-04-13T10:58:14.398Z,12.00
2023-04-13T11:00:46.896Z,12.32
2023-04-13T11:03:17.560Z,11.40
2023-04-13T11:05:47.593Z,12.13
2023-04-13T11:08:20.813Z,11.98
2023-04-13T11:10:53.849Z,10.85
2023-04-13T11:13:22.350Z,12.68
2023-04-13T11:15:51.856Z,12.10
2023-04-13T11:18:27.014Z,11.77
2023-04-13T11:20:55.419Z,10.18
2023-04-13T11:23:24.541Z,10.50
2023-04-13T11:26:04.670Z,10.73
2023-04-13T11:28:43.888Z,10.57
2023-04-13T11:31:12.760Z,10.25
2023-04-13T11:33:41.248Z,10.13
2023-04-13T11:36:11.988Z,10.52
2023-04-13T11:38:42.323Z,10.85
2023-04-13T11:43:42.062Z,9.65
2023-04-13T11:46:13.875Z,9.13
2023-04-13T11:48:42.438Z,9.75
2023-04-13T11:51:11.557Z,9.63
2023-04-13T11:53:40.939Z,8.93
2023-04-13T11:56:09.218Z,8.93
2023-04-13T11:58:39.596Z,9.32
2023-04-13T12:01:14.265Z,9.57
2023-04-13T12:03:59.189Z,8.80
2023-04-13T12:06:35.436Z,9.00
2023-04-13T12:09:11.290Z,8.52
2023-04-13T12:11:48.461Z,7.70
2023-04-13T12:19:30.259Z,8.10
2023-04-13T12:22:00.378Z,9.25
2023-04-13T12:24:38.073Z,8.80
2023-04-13T12:29:41.077Z,8.80
2023-04-13T12:32:17.060Z,8.70
2023-04-13T12:34:45.351Z,8.90
2023-04-13T12:37:13.457Z,8.70
2023-04-13T12:39:43.045Z,8.63
2023-04-13T12:42:11.055Z,8.30
2023-04-13T12:44:38.691Z,8.07
2023-04-13T12:47:06.823Z,7.97
2023-04-13T12:49:34.483Z,7.78
2023-04-13T12:52:02.497Z,7.80
2023-04-13T12:54:30.905Z,7.90
2023-04-13T12:56:59.788Z,7.50
2023-04-13T12:59:27.462Z,7.50
2023-04-13T13:01:55.462Z,7.50
2023-04-13T13:04:23.122Z,7.63
2023-04-13T13:06:51.459Z,7.82
2023-04-13T13:09:19.098Z,7.88
2023-04-13T13:11:47.290Z,7.30
2023-04-13T13:14:15.175Z,7.40
2023-04-13T13:16:43.419Z,7.10
2023-04-13T13:19:11.310Z,8.27
2023-04-13T13:21:39.302Z,8.07
2023-04-13T13:24:07.612Z,7.90
2023-04-13T13:27:00.152Z,7.53
2023-04-13T13:29:24.119Z,7.90
2023-04-13T13:31:52.578Z,7.68
2023-04-13T13:34:20.655Z,7.22
2023-04-13T13:36:49.602Z,7.40
2023-04-13T13:39:18.835Z,8.27
2023-04-13T13:41:48.435Z,7.65
2023-04-13T13:44:16.741Z,8.07
2023-04-13T13:46:44.733Z,8.90
2023-04-13T13:49:12.503Z,8.82
2023-04-13T13:51:58.118Z,8.60
2023-04-13T13:54:28.541Z,8.77
2023-04-13T13:56:56.452Z,8.95
2023-04-13T13:59:24.160Z,8.25
2023-04-13T14:01:52.241Z,8.02
2023-04-13T14:04:20.168Z,7.85
2023-04-13T14:06:49.692Z,8.75
2023-04-13T14:09:18.938Z,8.38
2023-04-13T14:11:46.846Z,7.50
2023-04-13T14:14:21.364Z,8.23
2023-04-13T14:16:50.564Z,7.13
2023-04-13T14:19:20.090Z,7.32
2023-04-13T14:21:49.150Z,7.15
2023-04-13T14:24:17.296Z,7.35
2023-04-13T14:26:45.221Z,7.25
2023-04-13T14:29:13.096Z,8.02
2023-04-13T14:31:41.076Z,9.02
2023-04-13T14:34:09.262Z,8.05
2023-04-13T14:36:37.391Z,8.05
2023-04-13T14:39:05.368Z,7.88
2023-04-13T14:41:33.336Z,7.07
2023-04-13T14:44:01.105Z,8.00
2023-04-13T14:46:29.442Z,7.18
2023-04-13T14:48:57.142Z,7.45
2023-04-13T14:51:25.030Z,7.82
2023-04-13T14:53:56.379Z,8.15
2023-04-13T14:56:24.506Z,7.75
2023-04-13T14:58:52.226Z,7.72
2023-04-13T15:01:22.165Z,7.82
2023-04-13T15:03:50.621Z,7.13
2023-04-13T15:06:19.040Z,6.78
2023-04-13T15:08:47.618Z,7.85
2023-04-13T15:11:15.557Z,7.88
2023-04-13T15:13:43.287Z,7.47
2023-04-13T15:16:11.832Z,7.28
2023-04-13T15:18:39.604Z,8.10
2023-04-13T15:21:07.476Z,7.50
2023-04-13T15:23:35.266Z,8.10
2023-04-13T15:26:03.345Z,8.00
2023-04-13T15:28:31.086Z,7.75
2023-04-13T15:30:59.129Z,7.93
2023-04-13T15:33:26.829Z,8.23
2023-04-13T15:35:55.151Z,7.25
2023-04-13T15:38:22.899Z,7.47
2023-04-13T15:40:50.922Z,7.93
2023-04-13T15:43:18.655Z,7.53
2023-04-13T15:45:47.061Z,7.90
2023-04-13T15:48:15.662Z,8.20
2023-04-13T15:50:43.565Z,7.15
2023-04-13T15:53:11.292Z,7.50
2023-04-13T15:55:40.912Z,7.32
2023-04-13T15:58:09.005Z,7.90
2023-04-13T16:00:36.938Z,7.85
2023-04-13T16:03:04.900Z,7.32
2023-04-13T16:05:33.414Z,7.10
2023-04-13T16:08:01.122Z,7.97
2023-04-13T16:10:29.160Z,7.85
2023-04-13T16:12:56.936Z,8.07
2023-04-13T16:15:25.029Z,6.95
2023-04-13T16:17:57.006Z,7.72
2023-04-13T16:20:28.400Z,8.30
2023-04-13T16:22:59.390Z,7.80
2023-04-13T16:25:27.453Z,8.13
2023-04-13T16:27:56.313Z,8.50
2023-04-13T16:30:24.471Z,9.23
2023-04-13T16:32:52.226Z,9.80
2023-04-13T16:35:20.321Z,9.25
2023-04-13T16:37:54.716Z,9.00
2023-04-13T16:40:22.748Z,9.88
2023-04-13T16:42:50.823Z,9.85
2023-04-13T16:45:18.890Z,10.07
2023-04-13T16:47:46.612Z,10.52
2023-04-13T16:50:14.572Z,10.60
2023-04-13T16:52:42.296Z,10.60
2023-04-13T16:55:14.990Z,12.00
2023-04-13T16:57:43.433Z,14.82
2023-04-13T17:00:12.232Z,15.27
2023-04-13T17:02:42.003Z,18.50
2023-04-13T17:05:12.536Z,19.27
2023-04-13T17:07:42.213Z,20.25
2023-04-13T17:10:12.561Z,20.80
2023-04-13T17:12:40.777Z,20.67
2023-04-13T17:15:10.058Z,20.65
2023-04-13T17:17:38.538Z,19.58
2023-04-13T17:20:07.497Z,16.20
2023-04-13T17:22:35.217Z,15.32
2023-04-13T17:25:03.167Z,17.63
2023-04-13T17:27:31.154Z,15.32
2023-04-13T17:29:59.044Z,15.20
2023-04-13T17:32:27.366Z,16.58
2023-04-13T17:34:57.320Z,17.13
2023-04-13T17:37:24.994Z,18.67
2023-04-13T17:39:52.883Z,20.40
2023-04-13T17:42:20.799Z,23.10
2023-04-13T17:44:48.771Z,29.58
2023-04-13T17:47:17.834Z,30.77
2023-04-13T17:49:46.024Z,28.13
2023-04-13T17:52:13.655Z,28.42
2023-04-13T17:54:41.556Z,28.30
2023-04-13T17:57:09.325Z,26.75
2023-04-13T17:59:37.314Z,26.50
2023-04-13T18:02:05.030Z,26.55
2023-04-13T18:04:33.191Z,26.27
2023-04-13T18:07:01.701Z,27.17
2023-04-13T18:09:29.683Z,26.80
2023-04-13T18:11:57.416Z,23.77
2023-04-13T18:14:25.376Z,21.52
2023-04-13T18:16:53.031Z,22.08
2023-04-13T18:19:21.034Z,20.15
2023-04-13T18:21:48.697Z,20.00
2023-04-13T18:24:16.778Z,21.05
2023-04-13T18:26:44.364Z,21.15
2023-04-13T18:29:13.688Z,24.08
2023-04-13T18:31:42.194Z,22.13
2023-04-13T18:34:13.300Z,21.92
2023-04-13T18:36:42.197Z,22.98
2023-04-13T18:39:10.253Z,23.90
2023-04-13T18:41:40.213Z,25.13
2023-04-13T18:44:09.687Z,26.02
2023-04-13T18:46:37.355Z,26.42
2023-04-13T18:49:05.310Z,26.65
2023-04-13T18:51:33.364Z,25.95
2023-04-13T18:54:02.084Z,26.10
2023-04-13T18:56:29.982Z,26.80
2023-04-13T18:58:57.878Z,27.05
2023-04-13T19:01:25.630Z,28.50
2023-04-13T19:03:53.852Z,29.23
2023-04-13T19:06:21.625Z,27.45
2023-04-13T19:08:49.503Z,27.13
2023-04-13T19:11:18.500Z,28.92
2023-04-13T19:13:48.197Z,28.55
2023-04-13T19:16:15.969Z,29.15
2023-04-13T19:18:43.920Z,26.45
2023-04-13T19:21:11.565Z,26.58
2023-04-13T19:23:40.544Z,26.08
2023-04-13T19:26:08.603Z,26.98
2023-04-13T19:28:36.497Z,29.65
2023-04-13T19:31:04.260Z,28.27
2023-04-13T19:33:33.546Z,27.85
2023-04-13T19:36:01.792Z,26.65
2023-04-13T19:38:29.709Z,26.08
2023-04-13T19:40:57.817Z,24.77
2023-04-13T19:43:28.086Z,25.73
2023-04-13T19:45:56.033Z,24.92
2023-04-13T19:48:24.054Z,23.10
2023-04-13T19:50:51.765Z,27.02
2023-04-13T19:53:19.676Z,26.88
2023-04-13T19:55:47.441Z,30.08
2023-04-13T19:58:15.663Z,33.33
2023-04-13T20:00:47.507Z,35.10
2023-04-13T20:03:17.960Z,31.85
2023-04-13T20:05:45.761Z,34.72
2023-04-13T20:08:14.622Z,31.13
2023-04-13T20:10:42.313Z,32.22
2023-04-13T20:13:10.971Z,33.28
2023-04-13T20:15:39.542Z,31.23
2023-04-13T20:18:08.606Z,31.08
2023-04-13T20:20:37.574Z,28.92
2023-04-13T20:23:07.938Z,27.35
2023-04-13T20:25:37.380Z,25.60
2023-04-13T20:28:10.262Z,26.00
2023-04-13T20:30:39.216Z,24.05
2023-04-13T20:33:07.482Z,22.38
2023-04-13T20:35:35.257Z,22.40
2023-04-13T20:38:04.827Z,21.92
2023-04-13T20:40:36.148Z,22.73
2023-04-13T20:43:06.203Z,21.52
2023-04-13T20:45:36.225Z,23.27
2023-04-13T20:50:35.825Z,21.23
2023-04-13T20:53:04.895Z,21.05
2023-04-13T20:55:33.347Z,19.25
2023-04-13T20:58:01.755Z,20.52
2023-04-13T21:00:29.831Z,21.70
2023-04-13T21:02:57.917Z,19.38
2023-04-13T21:05:25.885Z,19.83
2023-04-13T21:07:55.319Z,19.40
2023-04-13T21:10:24.659Z,19.52
2023-04-13T21:12:52.577Z,19.35
2023-04-13T21:15:20.250Z,19.77
2023-04-13T21:17:49.081Z,18.73
2023-04-13T21:20:16.775Z,19.33
2023-04-13T21:22:44.706Z,20.55
2023-04-13T21:25:12.292Z,21.48
2023-04-13T21:27:40.397Z,23.90
2023-04-13T21:30:08.595Z,26.73
2023-04-13T21:32:36.670Z,26.35
2023-04-13T21:35:04.740Z,24.65
2023-04-13T21:37:32.621Z,25.33
2023-04-13T21:40:00.595Z,24.63
2023-04-13T21:42:28.564Z,25.50
2023-04-13T21:44:59.480Z,26.25
2023-04-13T21:47:27.372Z,26.55
2023-04-13T21:49:55.099Z,27.38
2023-04-13T21:52:22.973Z,25.95
2023-04-13T21:54:51.612Z,25.60
2023-04-13T21:57:19.841Z,21.80
2023-04-13T21:59:47.426Z,23.10
2023-04-13T22:02:15.969Z,21.83
2023-04-13T22:04:43.778Z,22.60
2023-04-13T22:07:12.197Z,21.33
2023-04-13T22:09:40.332Z,19.83
2023-04-13T22:12:10.811Z,19.90
2023-04-13T22:14:38.546Z,19.17
2023-04-13T22:17:06.667Z,20.05
2023-04-13T22:19:34.328Z,20.27
2023-04-13T22:22:02.235Z,19.40
2023-04-13T22:24:29.889Z,21.23
2023-04-13T22:26:57.711Z,20.83
2023-04-13T22:29:25.351Z,20.95
2023-04-13T22:31:53.467Z,20.52
2023-04-13T22:34:21.297Z,20.95
2023-04-13T22:36:49.124Z,19.17
2023-04-13T22:39:16.843Z,19.23
2023-04-13T22:41:44.672Z,20.15
2023-04-13T22:44:12.253Z,19.95
2023-04-13T22:46:40.239Z,19.30
2023-04-13T22:49:07.995Z,20.23
2023-04-13T22:51:40.329Z,19.05
2023-04-13T22:54:08.057Z,18.45
2023-04-13T22:56:36.048Z,18.30
2023-04-13T22:59:03.715Z,17.48
2023-04-13T23:01:31.737Z,17.15
2023-04-13T23:03:59.696Z,17.05
2023-04-13T23:06:27.843Z,16.85
2023-04-13T23:08:56.792Z,16.60
2023-04-13T23:11:24.834Z,16.60
2023-04-13T23:13:55.580Z,17.00
2023-04-13T23:16:23.656Z,17.60
2023-04-13T23:18:51.295Z,15.82
2023-04-13T23:21:19.182Z,17.10
2023-04-13T23:23:46.769Z,16.85
2023-04-13T23:26:14.739Z,17.13
2023-04-13T23:28:42.400Z,17.30
2023-04-13T23:31:11.005Z,16.40
2023-04-13T23:33:38.829Z,16.13
2023-04-13T23:36:07.231Z,15.98
2023-04-13T23:38:34.881Z,15.77
2023-04-13T23:41:02.768Z,17.08
2023-04-13T23:43:30.477Z,16.50
2023-04-13T23:45:59.112Z,17.38
2023-04-13T23:48:27.338Z,17.10
2023-04-13T23:50:55.409Z,19.75
2023-04-13T23:53:23.686Z,17.95
2023-04-13T23:55:51.567Z,17.33
2023-04-13T23:58:19.257Z,18.98
